Time;durP1;ratioP1;P1;durP2;ratioP2;P2;SDS_P1;SDS_P2;PMS_P1;PMS_P2;Temp;Humidity;BMP_temperature;BMP_pressure;BME280_temperature;BME280_humidity;BME280_pressure;Samples;Min_cycle;Max_cycle;Signal;HPM_P1;HPM_P2
2022/01/14 00:01:16;;;;;;;84.90;29.25;;;0.90;99.90;;;;;;4980386;28;20035;-74
2022/01/14 00:03:42;;;;;;;79.15;27.08;;;0.90;99.90;;;;;;4978623;28;20113;-74
2022/01/14 00:06:08;;;;;;;75.82;27.10;;;0.90;99.90;;;;;;4984039;28;20117;-74
2022/01/14 00:08:34;;;;;;;79.07;27.85;;;0.90;99.90;;;;;;4981195;28;20038;-74
2022/01/14 00:11:00;;;;;;;89.55;27.23;;;0.90;99.90;;;;;;4980905;28;20026;-74
2022/01/14 00:16:12;;;;;;;81.20;25.83;;;0.90;99.90;;;;;;4949450;28;20034;-74
2022/01/14 00:18:38;;;;;;;83.90;25.60;;;0.90;99.90;;;;;;4977727;28;20035;-74
2022/01/14 00:21:03;;;;;;;65.43;24.05;;;0.90;99.90;;;;;;4977081;28;20121;-74
2022/01/14 00:23:34;;;;;;;132.20;26.80;;;0.80;99.90;;;;;;4979680;28;20379;-74
2022/01/14 00:34:06;;;;;;;63.13;24.77;;;0.90;99.90;;;;;;4977746;28;20026;-73
2022/01/14 00:36:32;;;;;;;60.65;23.30;;;0.90;99.90;;;;;;4984015;28;20083;-73
2022/01/14 00:38:57;;;;;;;58.63;24.00;;;0.90;99.90;;;;;;4983296;28;20030;-74
2022/01/14 00:41:23;;;;;;;81.97;25.33;;;0.90;99.90;;;;;;4977715;28;20781;-74
2022/01/14 00:43:53;;;;;;;68.70;25.77;;;0.90;99.90;;;;;;4979274;28;20094;-74
2022/01/14 00:46:19;;;;;;;93.20;27.98;;;0.90;99.90;;;;;;4978178;28;20026;-73
2022/01/14 00:48:44;;;;;;;79.57;24.75;;;0.80;99.90;;;;;;4976803;28;20038;-74
2022/01/14 00:51:10;;;;;;;113.63;25.33;;;0.80;99.90;;;;;;4980747;28;20084;-74
2022/01/14 00:53:36;;;;;;;88.65;23.95;;;0.80;99.90;;;;;;4973640;28;20545;-74
2022/01/14 00:56:20;;;;;;;61.95;22.80;;;0.90;99.90;;;;;;4974319;28;20113;-74
2022/01/14 01:01:31;;;;;;;68.38;24.20;;;0.80;99.90;;;;;;4982332;28;20093;-75
2022/01/14 01:03:57;;;;;;;68.20;24.15;;;0.80;99.90;;;;;;4979157;28;20486;-74
2022/01/14 01:06:23;;;;;;;71.43;24.88;;;0.80;99.90;;;;;;4982246;28;20031;-74
2022/01/14 01:08:51;;;;;;;61.10;23.60;;;0.80;99.90;;;;;;4982262;28;20041;-74
2022/01/14 01:11:23;;;;;;;62.20;24.80;;;0.80;99.90;;;;;;4983454;28;20129;-74
2022/01/14 01:13:59;;;;;;;63.67;25.07;;;0.80;99.90;;;;;;4982473;28;20045;-76
2022/01/14 01:16:24;;;;;;;76.63;24.23;;;0.80;99.90;;;;;;4977410;28;20284;-73
2022/01/14 01:18:50;;;;;;;70.78;24.60;;;0.80;99.90;;;;;;4979733;28;20026;-73
2022/01/14 01:21:16;;;;;;;70.40;25.30;;;0.80;99.90;;;;;;4984911;28;20474;-76
2022/01/14 01:23:41;;;;;;;73.03;25.98;;;0.80;99.90;;;;;;4980400;28;20386;-74
2022/01/14 01:26:16;;;;;;;76.57;25.02;;;0.80;99.90;;;;;;4980852;28;20133;-75
2022/01/14 01:28:57;;;;;;;78.57;24.25;;;0.80;99.90;;;;;;4973635;28;20572;-76
2022/01/14 01:31:35;;;;;;;61.58;23.80;;;0.70;99.90;;;;;;4985343;28;20046;-76
2022/01/14 01:34:05;;;;;;;62.53;22.70;;;0.80;99.90;;;;;;4984225;28;20105;-76
2022/01/14 01:36:30;;;;;;;62.80;24.38;;;0.80;99.90;;;;;;4984034;28;20096;-76
2022/01/14 01:38:56;;;;;;;74.15;24.13;;;0.80;99.90;;;;;;4980723;28;20494;-76
2022/01/14 01:41:21;;;;;;;72.90;23.63;;;0.80;99.90;;;;;;4975820;28;20026;-76
2022/01/14 01:43:52;;;;;;;69.50;22.85;;;0.70;99.90;;;;;;4979939;28;20101;-75
2022/01/14 01:46:20;;;;;;;62.67;23.40;;;0.80;99.90;;;;;;4973988;28;20437;-76
2022/01/14 01:48:46;;;;;;;69.53;22.83;;;0.80;99.90;;;;;;4984131;28;20576;-73
2022/01/14 01:51:12;;;;;;;68.18;24.13;;;0.80;99.90;;;;;;4974349;28;20023;-75
2022/01/14 01:53:38;;;;;;;66.88;24.08;;;0.80;99.90;;;;;;4986803;28;20041;-76
2022/01/14 01:56:04;;;;;;;60.95;21.85;;;0.80;99.90;;;;;;4980800;28;20156;-76
2022/01/14 01:58:29;;;;;;;75.05;23.20;;;0.80;99.90;;;;;;4985130;28;20499;-75
2022/01/14 02:00:55;;;;;;;67.72;21.20;;;0.80;99.90;;;;;;4983337;28;20147;-75
2022/01/14 02:03:21;;;;;;;89.88;21.45;;;0.80;99.90;;;;;;4981443;28;20065;-76
2022/01/14 02:05:46;;;;;;;56.88;22.70;;;0.80;99.90;;;;;;4977892;28;20038;-76
2022/01/14 02:08:13;;;;;;;60.25;22.70;;;0.80;99.90;;;;;;4979521;28;20055;-76
2022/01/14 02:10:39;;;;;;;57.70;23.40;;;0.80;99.90;;;;;;4978982;28;20069;-75
2022/01/14 02:13:06;;;;;;;78.13;23.27;;;0.80;99.90;;;;;;4983921;28;20041;-75
2022/01/14 02:15:47;;;;;;;59.60;23.83;;;0.80;99.90;;;;;;4982809;28;20169;-75
2022/01/14 02:26:53;;;;;;;51.45;21.25;;;0.80;99.90;;;;;;4967252;28;20462;-75
2022/01/14 02:29:20;;;;;;;53.78;21.75;;;0.70;99.90;;;;;;4975977;28;20054;-75
2022/01/14 02:31:47;;;;;;;56.45;21.88;;;0.70;99.90;;;;;;4981047;28;20439;-75
2022/01/14 02:34:14;;;;;;;75.35;23.42;;;0.70;99.90;;;;;;4980347;28;20188;-73
2022/01/14 02:36:46;;;;;;;57.80;24.05;;;0.60;99.90;;;;;;4982802;28;20129;-76
2022/01/14 02:39:13;;;;;;;63.97;23.92;;;0.60;99.90;;;;;;4984752;28;20532;-76
2022/01/14 02:41:42;;;;;;;56.00;23.00;;;0.70;99.90;;;;;;4976242;28;20053;-76
2022/01/14 02:44:17;;;;;;;58.22;22.48;;;0.60;99.90;;;;;;4980542;28;20496;-73
2022/01/14 02:46:51;;;;;;;61.38;23.42;;;0.70;99.90;;;;;;4985307;28;20169;-75
2022/01/14 02:49:17;;;;;;;64.43;24.83;;;0.70;99.90;;;;;;4980661;28;20046;-75
2022/01/14 02:51:43;;;;;;;58.10;23.80;;;0.70;99.90;;;;;;4985369;28;20041;-75
2022/01/14 02:54:22;;;;;;;67.03;24.67;;;0.70;99.90;;;;;;4977059;28;20562;-75
2022/01/14 02:56:51;;;;;;;66.65;23.90;;;0.70;99.90;;;;;;4979275;28;20045;-75
2022/01/14 02:59:17;;;;;;;59.05;23.27;;;0.70;99.90;;;;;;4975039;28;20109;-75
2022/01/14 03:01:45;;;;;;;68.53;23.52;;;0.60;99.90;;;;;;4972150;28;20071;-75
2022/01/14 03:04:14;;;;;;;71.00;23.85;;;0.60;99.90;;;;;;4982436;28;20038;-75
2022/01/14 03:06:41;;;;;;;73.85;25.42;;;0.60;99.90;;;;;;4974048;28;20843;-75
2022/01/14 03:09:07;;;;;;;80.85;25.27;;;0.60;99.90;;;;;;4978519;28;21878;-75
2022/01/14 03:11:45;;;;;;;87.95;24.17;;;0.50;99.90;;;;;;4981926;28;20073;-75
2022/01/14 03:14:14;;;;;;;76.10;25.63;;;0.60;99.90;;;;;;4977753;28;20038;-75
2022/01/14 03:16:42;;;;;;;82.30;25.23;;;0.60;99.90;;;;;;4977883;28;20038;-75
2022/01/14 03:19:18;;;;;;;76.72;26.17;;;0.60;99.90;;;;;;4977159;28;20041;-75
2022/01/14 03:21:43;;;;;;;82.60;26.20;;;0.60;99.90;;;;;;4972185;28;20042;-75
2022/01/14 03:24:23;;;;;;;187.23;27.08;;;0.60;99.90;;;;;;4976828;28;20132;-75
2022/01/14 03:26:51;;;;;;;125.47;26.42;;;0.60;99.90;;;;;;4970498;28;20185;-75
2022/01/14 03:29:17;;;;;;;163.23;26.92;;;0.60;99.90;;;;;;4974197;28;20047;-75
2022/01/14 03:31:45;;;;;;;99.55;24.27;;;0.60;99.90;;;;;;4981485;28;20037;-75
2022/01/14 03:34:10;;;;;;;71.78;24.40;;;0.60;99.90;;;;;;4986546;28;20034;-75
2022/01/14 03:36:37;;;;;;;97.93;24.00;;;0.70;99.90;;;;;;4982236;28;20053;-75
2022/01/14 03:39:04;;;;;;;68.82;23.42;;;0.70;99.90;;;;;;4980374;28;20041;-76
2022/01/14 03:41:30;;;;;;;127.35;26.25;;;0.60;99.90;;;;;;4979496;28;20451;-75
2022/01/14 03:43:55;;;;;;;103.07;26.35;;;0.60;99.90;;;;;;4974201;28;20026;-75
2022/01/14 03:46:21;;;;;;;116.50;26.70;;;0.60;99.90;;;;;;4977980;28;20061;-75
2022/01/14 03:48:47;;;;;;;100.47;27.17;;;0.60;99.90;;;;;;4978789;28;20478;-75
2022/01/14 03:51:13;;;;;;;96.65;26.08;;;0.60;99.90;;;;;;4977406;28;20169;-75
2022/01/14 03:53:39;;;;;;;98.18;26.05;;;0.60;99.90;;;;;;4981201;28;20041;-75
2022/01/14 03:56:05;;;;;;;214.07;28.67;;;0.60;99.90;;;;;;4980555;28;20041;-75
2022/01/14 03:58:31;;;;;;;100.07;28.50;;;0.60;99.90;;;;;;4975265;28;20027;-75
2022/01/14 04:00:57;;;;;;;221.05;30.42;;;0.60;99.90;;;;;;4982180;28;20042;-76
2022/01/14 04:03:22;;;;;;;101.75;26.85;;;0.60;99.90;;;;;;4983208;28;20037;-75
2022/01/14 04:05:48;;;;;;;84.88;26.63;;;0.60;99.90;;;;;;4983923;28;20138;-75
2022/01/14 04:08:14;;;;;;;65.22;25.63;;;0.70;99.90;;;;;;4974437;28;20035;-75
2022/01/14 04:10:39;;;;;;;91.43;26.33;;;0.70;99.90;;;;;;4979554;28;20031;-74
2022/01/14 04:13:11;;;;;;;67.25;26.25;;;0.70;99.90;;;;;;4984094;28;20034;-75
2022/01/14 04:15:36;;;;;;;103.57;26.27;;;0.60;99.90;;;;;;4967792;28;20478;-75
2022/01/14 04:18:07;;;;;;;62.15;25.48;;;0.70;99.90;;;;;;4974822;28;20053;-75
2022/01/14 04:20:33;;;;;;;91.35;25.45;;;0.60;99.90;;;;;;4978616;28;20062;-75
2022/01/14 04:22:59;;;;;;;109.35;25.63;;;0.70;99.90;;;;;;4974628;28;20092;-75
2022/01/14 04:25:26;;;;;;;90.30;25.63;;;0.70;99.90;;;;;;4983104;28;20035;-75
2022/01/14 04:27:51;;;;;;;80.20;23.65;;;0.80;99.90;;;;;;4980223;28;20062;-75
2022/01/14 04:30:18;;;;;;;56.78;23.42;;;0.70;99.90;;;;;;4977684;28;20446;-76
2022/01/14 04:32:44;;;;;;;57.78;24.02;;;0.70;99.90;;;;;;4983263;28;20052;-75
2022/01/14 04:35:10;;;;;;;89.30;26.20;;;0.70;99.90;;;;;;4980463;28;20549;-75
2022/01/14 04:37:35;;;;;;;61.90;25.70;;;0.60;99.90;;;;;;4988375;28;20029;-75
2022/01/14 04:40:03;;;;;;;105.57;26.00;;;0.60;99.90;;;;;;4982986;28;20474;-75
2022/01/14 04:42:29;;;;;;;67.43;23.38;;;0.60;99.90;;;;;;4984092;28;20089;-76
2022/01/14 04:44:56;;;;;;;64.18;24.60;;;0.70;99.90;;;;;;4976472;28;20110;-76
2022/01/14 04:50:07;;;;;;;68.65;24.02;;;0.70;99.90;;;;;;4986553;28;20118;-75
2022/01/14 04:52:32;;;;;;;58.25;23.85;;;0.70;99.90;;;;;;4981070;28;20042;-75
2022/01/14 04:54:58;;;;;;;100.15;26.17;;;0.70;99.90;;;;;;4979397;28;20221;-75
2022/01/14 04:57:24;;;;;;;72.10;26.10;;;0.60;99.90;;;;;;4974666;28;20080;-75
2022/01/14 04:59:50;;;;;;;59.05;24.45;;;0.70;99.90;;;;;;4984936;28;20046;-75
2022/01/14 05:02:16;;;;;;;58.78;23.67;;;0.70;99.90;;;;;;4979154;28;20042;-75
2022/01/14 05:04:43;;;;;;;59.35;25.00;;;0.70;99.90;;;;;;4982410;28;20568;-76
2022/01/14 05:07:23;;;;;;;102.63;26.60;;;0.70;99.90;;;;;;4981257;28;20100;-75
2022/01/14 05:09:57;;;;;;;120.70;25.65;;;0.70;99.90;;;;;;4975953;28;20039;-75
2022/01/14 05:12:23;;;;;;;71.20;26.15;;;0.60;99.90;;;;;;4985372;28;20076;-75
2022/01/14 05:14:49;;;;;;;80.07;25.85;;;0.70;99.90;;;;;;4977812;28;20061;-75
2022/01/14 05:17:14;;;;;;;103.07;26.48;;;0.70;99.90;;;;;;4983626;28;20034;-75
2022/01/14 05:19:40;;;;;;;64.60;25.50;;;0.70;99.90;;;;;;4983827;28;20625;-75
2022/01/14 05:22:05;;;;;;;91.18;24.98;;;0.70;99.90;;;;;;4981609;28;20034;-75
2022/01/14 05:24:31;;;;;;;61.72;24.85;;;0.70;99.90;;;;;;4977581;28;20486;-75
2022/01/14 05:26:56;;;;;;;58.28;23.80;;;0.70;99.90;;;;;;4978953;28;20038;-75
2022/01/14 05:29:22;;;;;;;79.13;24.63;;;0.70;99.90;;;;;;4977159;28;20138;-76
2022/01/14 05:31:51;;;;;;;100.05;26.25;;;0.70;99.90;;;;;;4982838;28;20225;-75
2022/01/14 05:34:16;;;;;;;149.57;25.77;;;0.70;99.90;;;;;;4981695;28;20034;-75
2022/01/14 05:36:42;;;;;;;79.72;24.90;;;0.60;99.90;;;;;;4982921;28;20472;-75
2022/01/14 05:39:09;;;;;;;64.38;25.20;;;0.60;99.90;;;;;;4980326;28;20031;-75
2022/01/14 05:41:35;;;;;;;79.90;23.58;;;0.60;99.90;;;;;;4985425;28;20038;-75
2022/01/14 05:44:02;;;;;;;64.38;21.95;;;0.60;99.90;;;;;;4984864;28;20044;-75
2022/01/14 05:46:28;;;;;;;91.55;24.17;;;0.50;99.90;;;;;;4976282;28;20245;-75
2022/01/14 05:48:54;;;;;;;323.60;27.42;;;0.50;99.90;;;;;;4982490;28;20030;-76
2022/01/14 05:51:20;;;;;;;71.95;21.52;;;0.50;99.90;;;;;;4974498;28;20037;-75
2022/01/14 05:53:45;;;;;;;81.30;23.95;;;0.60;99.90;;;;;;4980712;28;20034;-75
2022/01/14 05:56:11;;;;;;;136.05;30.20;;;0.50;99.90;;;;;;4975730;28;20053;-76
2022/01/14 05:58:37;;;;;;;118.65;25.05;;;0.50;99.90;;;;;;4978981;28;20045;-77
2022/01/14 06:01:02;;;;;;;311.83;30.33;;;0.50;99.90;;;;;;4978026;28;20421;-77
2022/01/14 06:03:31;;;;;;;80.63;21.98;;;0.40;99.90;;;;;;4980028;28;20574;-77
2022/01/14 06:05:56;;;;;;;143.73;26.38;;;0.40;99.90;;;;;;4973827;28;22180;-77
2022/01/14 06:08:22;;;;;;;79.70;24.15;;;0.40;99.90;;;;;;4968878;28;20707;-77
2022/01/14 06:10:47;;;;;;;199.75;24.60;;;0.40;99.90;;;;;;4975962;28;20030;-77
2022/01/14 06:13:13;;;;;;;248.85;27.77;;;0.30;99.90;;;;;;4983917;28;20038;-77
2022/01/14 06:15:39;;;;;;;216.55;25.73;;;0.30;99.90;;;;;;4975537;28;20037;-77
2022/01/14 06:18:04;;;;;;;137.98;24.25;;;0.30;99.90;;;;;;4978042;28;20031;-77
2022/01/14 06:20:30;;;;;;;160.38;25.83;;;0.20;99.90;;;;;;4980841;28;20097;-77
2022/01/14 06:22:55;;;;;;;79.25;22.42;;;0.20;99.90;;;;;;4979722;28;20397;-77
2022/01/14 06:25:21;;;;;;;89.07;23.05;;;0.20;99.90;;;;;;4980592;28;20034;-76
2022/01/14 06:27:46;;;;;;;184.10;25.52;;;0.20;99.90;;;;;;4973975;28;20046;-77
2022/01/14 06:30:13;;;;;;;215.13;28.80;;;0.30;99.90;;;;;;4975196;28;20048;-78
2022/01/14 06:32:41;;;;;;;96.25;28.02;;;0.20;99.90;;;;;;4976417;28;20506;-77
2022/01/14 06:35:15;;;;;;;186.43;27.30;;;0.30;99.90;;;;;;4978855;28;20070;-77
2022/01/14 06:37:41;;;;;;;161.57;24.88;;;0.20;99.90;;;;;;4976650;28;20781;-77
2022/01/14 06:40:09;;;;;;;300.40;28.67;;;0.20;99.90;;;;;;4977155;28;20379;-77
2022/01/14 06:42:35;;;;;;;106.75;24.92;;;0.30;99.90;;;;;;4978030;28;20038;-77
2022/01/14 06:45:02;;;;;;;56.05;24.48;;;0.20;99.90;;;;;;4981011;28;20038;-77
2022/01/14 06:47:27;;;;;;;113.10;27.15;;;0.20;99.90;;;;;;4977145;28;20062;-77
2022/01/14 06:49:53;;;;;;;64.97;25.52;;;0.20;99.90;;;;;;4984620;28;20033;-77
2022/01/14 06:52:20;;;;;;;69.82;25.40;;;0.20;99.90;;;;;;4974843;28;20566;-77
2022/01/14 06:54:45;;;;;;;117.78;23.35;;;0.30;99.90;;;;;;4984545;28;20101;-77
2022/01/14 06:57:11;;;;;;;60.97;23.05;;;0.30;99.90;;;;;;4972433;28;20494;-77
2022/01/14 06:59:37;;;;;;;62.00;23.58;;;0.30;99.90;;;;;;4980634;28;20038;-77
2022/01/14 07:02:03;;;;;;;86.53;24.73;;;0.30;99.90;;;;;;4978085;28;20070;-77
2022/01/14 07:04:28;;;;;;;115.50;27.35;;;0.30;99.90;;;;;;4982077;28;20038;-77
2022/01/14 07:06:54;;;;;;;224.40;29.23;;;0.30;99.90;;;;;;4981889;28;20033;-77
2022/01/14 07:09:20;;;;;;;348.45;28.77;;;0.20;99.90;;;;;;4979223;28;20030;-77
2022/01/14 07:11:52;;;;;;;58.90;23.40;;;0.30;99.90;;;;;;4979206;28;20026;-77
2022/01/14 07:14:18;;;;;;;155.45;25.13;;;0.30;99.90;;;;;;4973913;28;20027;-77
2022/01/14 07:16:44;;;;;;;143.43;23.50;;;0.30;99.90;;;;;;4974892;28;20040;-76
2022/01/14 07:19:10;;;;;;;161.25;25.30;;;0.20;99.90;;;;;;4981584;28;20026;-77
2022/01/14 07:21:35;;;;;;;67.68;23.05;;;0.20;99.90;;;;;;4979141;28;20030;-77
2022/01/14 07:24:02;;;;;;;103.85;25.42;;;0.30;99.90;;;;;;4974123;28;20030;-77
2022/01/14 07:26:28;;;;;;;228.95;26.27;;;0.30;99.90;;;;;;4976465;28;20750;-77
2022/01/14 07:28:54;;;;;;;108.70;22.73;;;0.30;99.90;;;;;;4984279;28;20074;-77
2022/01/14 07:31:19;;;;;;;149.63;23.33;;;0.30;99.90;;;;;;4978237;28;20093;-77
2022/01/14 07:33:45;;;;;;;97.95;22.25;;;0.30;99.90;;;;;;4978606;28;20030;-77
2022/01/14 07:36:10;;;;;;;81.25;21.98;;;0.30;99.90;;;;;;4977468;28;20026;-77
2022/01/14 07:38:36;;;;;;;139.13;24.33;;;0.30;99.90;;;;;;4977024;28;20026;-77
2022/01/14 07:41:03;;;;;;;167.75;25.10;;;0.20;99.90;;;;;;4982084;28;20506;-77
2022/01/14 07:43:28;;;;;;;102.85;23.48;;;0.20;99.90;;;;;;4982237;28;20065;-77
2022/01/14 07:45:54;;;;;;;58.33;23.23;;;0.20;99.90;;;;;;4982566;28;20069;-77
2022/01/14 07:48:20;;;;;;;102.38;24.85;;;0.20;99.90;;;;;;4986537;28;20060;-76
2022/01/14 07:50:46;;;;;;;246.27;27.92;;;0.20;99.90;;;;;;4973219;28;20037;-76
2022/01/14 07:53:12;;;;;;;59.05;24.23;;;0.30;99.90;;;;;;4982151;28;20109;-76
2022/01/14 07:55:37;;;;;;;73.72;24.13;;;0.30;99.90;;;;;;4983555;28;20026;-76
2022/01/14 07:58:04;;;;;;;143.23;26.45;;;;;;;;;;4977054;28;20054;-76
2022/01/14 08:00:30;;;;;;;374.17;30.35;;;0.50;99.90;;;;;;4984345;28;20555;-76
2022/01/14 08:02:56;;;;;;;71.25;24.77;;;0.50;99.90;;;;;;4975209;28;20129;-76
2022/01/14 08:05:22;;;;;;;106.55;24.88;;;;;;;;;;4980700;28;20034;-76
2022/01/14 08:07:51;;;;;;;126.63;27.58;;;;;;;;;;4985163;28;20034;-76
2022/01/14 08:10:17;;;;;;;71.10;24.83;;;;;;;;;;4987047;28;20069;-76
2022/01/14 08:12:43;;;;;;;202.50;27.83;;;;;;;;;;4987739;28;20065;-76
2022/01/14 08:15:10;;;;;;;59.80;24.65;;;;;;;;;;4988757;28;20042;-76
2022/01/14 08:17:36;;;;;;;156.55;26.20;;;;;;;;;;4981774;28;20117;-76
2022/01/14 08:20:04;;;;;;;92.00;27.08;;;;;;;;;;4983677;28;21043;-75
2022/01/14 08:22:31;;;;;;;64.93;27.08;;;;;;;;;;4983422;28;20179;-76
2022/01/14 08:24:57;;;;;;;70.50;28.00;;;;;;;;;;4982571;28;20355;-76
2022/01/14 08:27:23;;;;;;;66.90;27.45;;;;;;;;;;4979171;28;20047;-76
2022/01/14 08:29:50;;;;;;;80.20;27.73;;;;;;;;;;4977946;28;20124;-76
2022/01/14 08:32:16;;;;;;;64.97;26.95;;;;;;;;;;4979871;28;20470;-76
2022/01/14 08:34:42;;;;;;;69.07;28.25;;;0.80;99.90;;;;;;4984748;28;20022;-76
2022/01/14 08:37:08;;;;;;;74.13;32.28;;;0.80;99.90;;;;;;4979871;28;20040;-76
2022/01/14 08:39:34;;;;;;;58.88;25.45;;;0.80;99.90;;;;;;4984892;28;20371;-76
2022/01/14 08:41:59;;;;;;;64.15;24.65;;;0.90;99.90;;;;;;4972700;28;20034;-76
2022/01/14 08:44:25;;;;;;;57.10;24.15;;;0.90;99.90;;;;;;4981487;28;20406;-76
2022/01/14 08:46:55;;;;;;;59.78;26.52;;;0.90;99.90;;;;;;4977551;28;20190;-75
2022/01/14 08:49:22;;;;;;;62.85;27.73;;;0.90;99.90;;;;;;4984642;28;20080;-76
2022/01/14 08:51:49;;;;;;;64.43;27.85;;;0.90;99.90;;;;;;4980759;28;20030;-76
2022/01/14 08:54:17;;;;;;;59.25;27.15;;;1.00;99.90;;;;;;4979892;28;20522;-76
2022/01/14 08:56:42;;;;;;;62.40;26.27;;;1.00;99.90;;;;;;4983603;28;20072;-76
2022/01/14 08:59:08;;;;;;;60.40;27.42;;;1.00;99.90;;;;;;4979466;28;20030;-76
2022/01/14 09:01:35;;;;;;;56.40;26.85;;;1.10;99.90;;;;;;4978711;28;20327;-76
2022/01/14 09:04:02;;;;;;;58.75;26.77;;;1.10;99.90;;;;;;4977525;28;20038;-76
2022/01/14 09:06:28;;;;;;;61.80;27.75;;;1.20;99.90;;;;;;4984391;28;20042;-76
2022/01/14 09:08:54;;;;;;;59.78;27.15;;;1.20;99.90;;;;;;4981772;28;20072;-76
2022/01/14 09:11:20;;;;;;;56.47;26.17;;;1.20;99.90;;;;;;4982004;28;20034;-75
2022/01/14 09:13:46;;;;;;;75.25;31.00;;;1.20;99.90;;;;;;4977957;28;20048;-76
2022/01/14 09:16:12;;;;;;;61.85;29.80;;;1.20;99.90;;;;;;4969341;28;20034;-76
2022/01/14 09:18:37;;;;;;;60.03;28.20;;;1.20;99.90;;;;;;4970797;28;20113;-76
2022/01/14 09:21:03;;;;;;;56.40;27.13;;;1.30;99.90;;;;;;4982403;28;20117;-75
2022/01/14 09:23:30;;;;;;;58.22;27.35;;;1.30;99.90;;;;;;4980682;28;20027;-75
2022/01/14 09:25:56;;;;;;;59.92;28.02;;;1.30;99.90;;;;;;4981752;28;20031;-76
2022/01/14 09:28:22;;;;;;;55.05;25.55;;;1.40;99.90;;;;;;4977867;28;20051;-78
2022/01/14 09:30:48;;;;;;;62.63;26.88;;;1.40;99.90;;;;;;4982252;28;20092;-77
2022/01/14 09:33:17;;;;;;;53.03;26.45;;;1.40;99.90;;;;;;4975890;28;20042;-74
2022/01/14 09:35:43;;;;;;;50.97;25.73;;;1.40;99.90;;;;;;4976096;28;20034;-77
2022/01/14 09:38:09;;;;;;;52.28;26.25;;;1.40;99.90;;;;;;4978650;28;20026;-77
2022/01/14 09:40:35;;;;;;;50.90;24.85;;;1.40;99.90;;;;;;4979462;28;20482;-77
2022/01/14 09:43:01;;;;;;;50.45;24.83;;;1.40;99.90;;;;;;4989229;28;20677;-75
2022/01/14 09:45:28;;;;;;;55.60;26.63;;;1.40;99.90;;;;;;4986250;28;20038;-76
2022/01/14 09:47:55;;;;;;;49.30;25.42;;;1.50;99.90;;;;;;4983869;28;20109;-74
2022/01/14 09:50:22;;;;;;;56.45;26.67;;;1.50;99.90;;;;;;4983761;28;20649;-74
2022/01/14 09:52:51;;;;;;;50.83;26.83;;;1.50;99.90;;;;;;4981736;28;20490;-75
2022/01/14 09:55:21;;;;;;;50.78;25.70;;;1.50;99.90;;;;;;4979062;28;20044;-75
2022/01/14 09:57:48;;;;;;;54.65;26.48;;;1.50;99.90;;;;;;4982798;28;20120;-74
2022/01/14 10:00:14;;;;;;;54.17;27.23;;;1.50;99.90;;;;;;4976483;28;20470;-77
2022/01/14 10:02:44;;;;;;;51.97;27.42;;;1.50;99.90;;;;;;4978918;28;20097;-77
2022/01/14 10:05:30;;;;;;;58.15;27.77;;;1.60;99.90;;;;;;4981884;28;20035;-78
2022/01/14 10:08:20;;;;;;;49.63;25.85;;;1.60;99.90;;;;;;4983973;28;20394;-79
2022/01/14 10:10:51;;;;;;;52.50;25.92;;;1.50;99.90;;;;;;4986798;28;20674;-77
2022/01/14 10:13:22;;;;;;;48.17;24.40;;;1.60;99.90;;;;;;4976238;28;20037;-77
2022/01/14 10:15:53;;;;;;;54.10;25.95;;;1.80;99.90;;;;;;4987530;28;20034;-78
2022/01/14 10:18:22;;;;;;;51.55;26.08;;;1.90;99.90;;;;;;4976734;28;20042;-76
2022/01/14 10:20:49;;;;;;;50.45;23.88;;;1.80;99.90;;;;;;4973293;28;20038;-78
2022/01/14 10:23:15;;;;;;;43.60;23.23;;;1.80;99.90;;;;;;4974976;28;20120;-78
2022/01/14 10:25:54;;;;;;;53.15;26.40;;;1.70;99.90;;;;;;4974109;28;20113;-77
2022/01/14 10:28:20;;;;;;;48.95;25.17;;;1.70;99.90;;;;;;4985892;28;20108;-81
2022/01/14 10:30:48;;;;;;;48.97;24.45;;;1.90;99.90;;;;;;4972671;28;20034;-78
2022/01/14 10:33:19;;;;;;;50.60;25.63;;;2.00;99.90;;;;;;4969338;28;20518;-79
2022/01/14 10:35:46;;;;;;;47.22;25.92;;;2.10;99.90;;;;;;4985882;28;20092;-78
2022/01/14 10:38:20;;;;;;;48.60;25.75;;;2.20;99.90;;;;;;4982350;28;20213;-80
2022/01/14 10:40:55;;;;;;;44.42;24.42;;;2.20;99.90;;;;;;4984322;28;20105;-83
2022/01/14 10:43:29;;;;;;;46.25;24.10;;;2.30;99.90;;;;;;4974944;28;20034;-82
2022/01/14 10:45:55;;;;;;;52.63;27.13;;;2.40;99.90;;;;;;4980425;28;20050;-82
2022/01/14 10:48:36;;;;;;;45.95;24.92;;;2.40;99.90;;;;;;4981672;28;20046;-81
2022/01/14 10:51:11;;;;;;;42.78;23.48;;;2.40;99.90;;;;;;4977101;28;20064;-79
2022/01/14 10:53:42;;;;;;;46.72;23.58;;;2.40;99.90;;;;;;4983415;28;20034;-77
2022/01/14 10:56:13;;;;;;;48.10;24.38;;;2.40;99.90;;;;;;4986011;28;20042;-79
2022/01/14 10:58:59;;;;;;;47.35;23.92;;;2.40;99.90;;;;;;4981121;28;20034;-79
2022/01/14 11:01:26;;;;;;;45.30;23.40;;;2.50;99.90;;;;;;4972566;28;20121;-79
2022/01/14 11:03:56;;;;;;;46.75;23.25;;;2.40;99.90;;;;;;4981896;28;20459;-79
2022/01/14 11:06:36;;;;;;;45.90;22.23;;;2.40;99.90;;;;;;4981872;28;20034;-76
2022/01/14 11:09:17;;;;;;;48.40;24.05;;;2.30;99.90;;;;;;4981426;28;20066;-78
2022/01/14 11:11:47;;;;;;;49.67;25.00;;;2.30;99.90;;;;;;4974840;28;20038;-80
2022/01/14 11:14:16;;;;;;;46.78;23.05;;;2.30;99.90;;;;;;4979199;28;20498;-78
2022/01/14 11:16:42;;;;;;;50.45;25.30;;;2.30;99.90;;;;;;4984981;28;20045;-78
2022/01/14 11:19:09;;;;;;;46.83;25.48;;;2.30;99.90;;;;;;4975596;28;20521;-78
2022/01/14 11:24:27;;;;;;;45.38;23.60;;;2.40;99.90;;;;;;4987045;28;20184;-77
2022/01/14 11:27:00;;;;;;;37.58;19.52;;;2.10;99.90;;;;;;4980330;28;20121;-79
2022/01/14 11:29:37;;;;;;;49.25;25.60;;;2.10;99.90;;;;;;4980609;28;20676;-76
2022/01/14 11:32:05;;;;;;;50.97;25.17;;;2.00;99.90;;;;;;4985733;28;20030;-77
2022/01/14 11:34:31;;;;;;;48.38;25.20;;;2.10;99.90;;;;;;4984223;28;20248;-77
2022/01/14 11:36:59;;;;;;;48.15;24.98;;;2.10;99.90;;;;;;4982799;28;20081;-79
2022/01/14 11:39:34;;;;;;;51.03;26.40;;;2.10;99.90;;;;;;4987537;28;20035;-80
2022/01/14 11:42:08;;;;;;;55.25;28.45;;;2.10;99.90;;;;;;4980301;28;20060;-79
2022/01/14 11:44:46;;;;;;;51.42;27.20;;;2.10;99.90;;;;;;4972524;28;20605;-80
2022/01/14 11:47:24;;;;;;;56.42;27.48;;;2.10;99.90;;;;;;4979369;28;20041;-78
2022/01/14 11:49:50;;;;;;;65.25;32.00;;;2.10;99.90;;;;;;4983120;28;20053;-79
2022/01/14 11:52:32;;;;;;;68.40;34.75;;;2.10;99.90;;;;;;4985702;28;20105;-79
2022/01/14 11:54:57;;;;;;;58.90;31.73;;;2.10;99.90;;;;;;4985171;28;20026;-76
2022/01/14 11:57:45;;;;;;;61.65;32.10;;;2.10;99.90;;;;;;4983838;28;20029;-78
2022/01/14 12:00:37;;;;;;;61.00;31.17;;;2.10;99.90;;;;;;4978485;28;20027;-78
2022/01/14 12:03:15;;;;;;;67.25;30.50;;;2.20;99.90;;;;;;4978802;28;20030;-78
2022/01/14 12:06:08;;;;;;;56.95;30.25;;;2.20;99.90;;;;;;4973968;28;20161;-78
2022/01/14 12:08:36;;;;;;;63.37;31.27;;;2.20;99.90;;;;;;4978093;28;20113;-78
2022/01/14 12:11:07;;;;;;;63.90;29.88;;;2.20;99.90;;;;;;4981516;28;20344;-78
2022/01/14 12:13:50;;;;;;;59.53;29.50;;;2.20;99.90;;;;;;4978326;28;20034;-78
2022/01/14 12:18:59;;;;;;;57.67;30.02;;;2.20;99.90;;;;;;4971370;28;20515;-78
2022/01/14 12:21:49;;;;;;;66.90;31.98;;;2.20;99.90;;;;;;4973569;28;20035;-78
2022/01/14 12:24:15;;;;;;;62.60;30.42;;;2.30;99.90;;;;;;4977430;28;20039;-77
2022/01/14 12:27:03;;;;;;;63.58;31.55;;;2.20;99.90;;;;;;4978450;28;20585;-78
2022/01/14 12:29:42;;;;;;;66.80;31.67;;;2.20;99.90;;;;;;4978292;28;20122;-78
2022/01/14 12:32:09;;;;;;;68.72;32.92;;;2.20;99.90;;;;;;4981281;28;20058;-78
2022/01/14 12:34:40;;;;;;;68.95;33.08;;;2.20;99.90;;;;;;4975330;28;20506;-77
2022/01/14 12:37:07;;;;;;;69.95;33.17;;;2.20;99.90;;;;;;4977932;28;20509;-77
2022/01/14 12:39:33;;;;;;;65.72;31.85;;;2.20;99.90;;;;;;4976075;28;20550;-78
2022/01/14 12:42:00;;;;;;;63.58;31.27;;;2.10;99.90;;;;;;4976735;28;20070;-78
2022/01/14 12:44:26;;;;;;;70.55;33.65;;;2.10;99.90;;;;;;4984588;28;20055;-78
2022/01/14 12:47:05;;;;;;;71.63;34.10;;;2.20;99.90;;;;;;4967651;28;20034;-75
2022/01/14 12:49:35;;;;;;;81.10;39.50;;;2.20;99.90;;;;;;4977353;28;20394;-76
2022/01/14 12:52:10;;;;;;;73.47;36.22;;;2.20;99.90;;;;;;4975812;28;20053;-76
2022/01/14 12:54:39;;;;;;;69.47;32.22;;;2.20;99.90;;;;;;4985411;28;20033;-76
2022/01/14 12:57:05;;;;;;;66.85;31.38;;;2.20;99.90;;;;;;4981693;28;20483;-76
2022/01/14 12:59:38;;;;;;;68.30;31.42;;;2.20;99.90;;;;;;4984695;28;20098;-76
2022/01/14 13:02:05;;;;;;;67.35;31.38;;;2.20;99.90;;;;;;4986488;28;20034;-76
2022/01/14 13:04:31;;;;;;;68.03;31.92;;;2.20;99.90;;;;;;4983525;28;20414;-76
2022/01/14 13:07:03;;;;;;;72.47;32.95;;;2.30;99.90;;;;;;4984244;28;20403;-76
2022/01/14 13:09:31;;;;;;;76.65;32.17;;;2.30;99.90;;;;;;4978129;28;20056;-76
2022/01/14 13:12:12;;;;;;;73.93;33.72;;;2.30;99.90;;;;;;4974362;28;20491;-76
2022/01/14 13:14:46;;;;;;;70.85;31.25;;;2.30;99.90;;;;;;4977333;28;20035;-76